sensor_id;sensor_type;location;lat;lon;timestamp;pressure;altitude;pressure_sealevel;temperature;humidity
70248;BME280;57641;51.416;5.506;2022-08-07T00:01:10;102705.50;;;22.04;45.22
70248;BME280;57641;51.416;5.506;2022-08-07T00:03:36;102708.38;;;22.03;45.94
70248;BME280;57641;51.416;5.506;2022-08-07T00:06:02;102711.09;;;22.03;44.87
70248;BME280;57641;51.416;5.506;2022-08-07T00:08:28;102716.25;;;21.98;45.25
70248;BME280;57641;51.416;5.506;2022-08-07T00:10:53;102707.25;;;21.97;44.92
70248;BME280;57641;51.416;5.506;2022-08-07T00:13:20;102698.44;;;21.95;45.13
70248;BME280;57641;51.416;5.506;2022-08-07T00:15:46;102699.47;;;21.94;44.75
70248;BME280;57641;51.416;5.506;2022-08-07T00:18:16;102702.19;;;21.94;45.80
70248;BME280;57641;51.416;5.506;2022-08-07T00:20:42;102702.91;;;21.88;45.63
70248;BME280;57641;51.416;5.506;2022-08-07T00:23:07;102692.03;;;21.88;45.61
70248;BME280;57641;51.416;5.506;2022-08-07T00:25:34;102696.63;;;21.87;45.00
70248;BME280;57641;51.416;5.506;2022-08-07T00:28:00;102687.31;;;21.82;44.34
70248;BME280;57641;51.416;5.506;2022-08-07T00:30:26;102686.31;;;21.83;45.79
70248;BME280;57641;51.416;5.506;2022-08-07T00:32:52;102682.75;;;21.82;45.46
70248;BME280;57641;51.416;5.506;2022-08-07T00:35:18;102680.06;;;21.74;44.86
70248;BME280;57641;51.416;5.506;2022-08-07T00:40:10;102681.56;;;21.62;44.72
70248;BME280;57641;51.416;5.506;2022-08-07T00:42:36;102675.91;;;21.64;45.72
70248;BME280;57641;51.416;5.506;2022-08-07T00:45:01;102665.25;;;21.62;45.67
70248;BME280;57641;51.416;5.506;2022-08-07T00:47:27;102674.59;;;21.60;45.79
70248;BME280;57641;51.416;5.506;2022-08-07T00:49:52;102676.66;;;21.58;46.55
70248;BME280;57641;51.416;5.506;2022-08-07T00:52:18;102670.06;;;21.52;46.94
70248;BME280;57641;51.416;5.506;2022-08-07T00:54:43;102674.38;;;21.46;46.70
70248;BME280;57641;51.416;5.506;2022-08-07T00:57:09;102680.53;;;21.40;47.16
70248;BME280;57641;51.416;5.506;2022-08-07T00:59:38;102670.38;;;21.34;47.39
70248;BME280;57641;51.416;5.506;2022-08-07T01:02:05;102667.38;;;21.29;47.24
70248;BME280;57641;51.416;5.506;2022-08-07T01:04:31;102672.28;;;21.26;47.22
70248;BME280;57641;51.416;5.506;2022-08-07T01:06:57;102663.66;;;21.22;47.50
70248;BME280;57641;51.416;5.506;2022-08-07T01:09:24;102659.94;;;21.23;47.02
70248;BME280;57641;51.416;5.506;2022-08-07T01:11:50;102661.13;;;21.21;47.64
70248;BME280;57641;51.416;5.506;2022-08-07T01:14:17;102667.09;;;21.16;47.77
70248;BME280;57641;51.416;5.506;2022-08-07T01:16:44;102663.19;;;21.11;47.77
70248;BME280;57641;51.416;5.506;2022-08-07T01:19:10;102661.69;;;21.08;47.86
70248;BME280;57641;51.416;5.506;2022-08-07T01:21:37;102651.19;;;21.05;47.62
70248;BME280;57641;51.416;5.506;2022-08-07T01:24:03;102650.03;;;20.99;48.12
70248;BME280;57641;51.416;5.506;2022-08-07T01:26:29;102655.44;;;20.99;48.23
70248;BME280;57641;51.416;5.506;2022-08-07T01:28:55;102653.13;;;20.96;48.25
70248;BME280;57641;51.416;5.506;2022-08-07T01:31:21;102650.09;;;20.91;48.55
70248;BME280;57641;51.416;5.506;2022-08-07T01:33:56;102643.50;;;20.86;48.65
70248;BME280;57641;51.416;5.506;2022-08-07T01:36:24;102645.91;;;20.81;48.60
70248;BME280;57641;51.416;5.506;2022-08-07T01:38:50;102640.84;;;20.78;48.80
70248;BME280;57641;51.416;5.506;2022-08-07T01:41:17;102644.91;;;20.74;48.64
70248;BME280;57641;51.416;5.506;2022-08-07T01:43:45;102639.50;;;20.74;48.76
70248;BME280;57641;51.416;5.506;2022-08-07T01:46:12;102639.69;;;20.72;48.85
70248;BME280;57641;51.416;5.506;2022-08-07T01:48:43;102638.69;;;20.65;49.25
70248;BME280;57641;51.416;5.506;2022-08-07T01:51:13;102633.28;;;20.65;49.23
70248;BME280;57641;51.416;5.506;2022-08-07T01:53:42;102636.00;;;20.65;48.70
70248;BME280;57641;51.416;5.506;2022-08-07T01:56:21;102637.84;;;20.64;48.21
70248;BME280;57641;51.416;5.506;2022-08-07T01:58:54;102635.13;;;20.64;48.96
70248;BME280;57641;51.416;5.506;2022-08-07T02:01:26;102647.84;;;20.64;49.05
70248;BME280;57641;51.416;5.506;2022-08-07T02:04:00;102637.84;;;20.64;48.81
70248;BME280;57641;51.416;5.506;2022-08-07T02:06:29;102632.44;;;20.64;49.42
70248;BME280;57641;51.416;5.506;2022-08-07T02:08:56;102633.63;;;20.62;49.40
70248;BME280;57641;51.416;5.506;2022-08-07T02:11:25;102638.38;;;20.60;49.36
70248;BME280;57641;51.416;5.506;2022-08-07T02:13:54;102634.13;;;20.57;49.39
70248;BME280;57641;51.416;5.506;2022-08-07T02:16:25;102637.03;;;20.56;49.35
70248;BME280;57641;51.416;5.506;2022-08-07T02:18:53;102636.19;;;20.55;49.80
70248;BME280;57641;51.416;5.506;2022-08-07T02:21:21;102626.53;;;20.53;49.55
70248;BME280;57641;51.416;5.506;2022-08-07T02:23:48;102625.88;;;20.51;49.30
70248;BME280;57641;51.416;5.506;2022-08-07T02:26:16;102620.81;;;20.48;49.61
70248;BME280;57641;51.416;5.506;2022-08-07T02:28:42;102621.66;;;20.48;49.75
70248;BME280;57641;51.416;5.506;2022-08-07T02:31:09;102624.03;;;20.43;49.51
70248;BME280;57641;51.416;5.506;2022-08-07T02:33:37;102624.72;;;20.37;50.00
70248;BME280;57641;51.416;5.506;2022-08-07T02:36:04;102620.53;;;20.35;50.27
70248;BME280;57641;51.416;5.506;2022-08-07T02:38:33;102630.50;;;20.34;50.02
70248;BME280;57641;51.416;5.506;2022-08-07T02:41:00;102629.50;;;20.35;50.23
70248;BME280;57641;51.416;5.506;2022-08-07T02:43:27;102623.41;;;20.33;50.22
70248;BME280;57641;51.416;5.506;2022-08-07T02:45:56;102621.53;;;20.34;49.68
70248;BME280;57641;51.416;5.506;2022-08-07T02:48:22;102622.19;;;20.36;49.84
70248;BME280;57641;51.416;5.506;2022-08-07T02:50:51;102618.47;;;20.37;49.72
70248;BME280;57641;51.416;5.506;2022-08-07T02:53:23;102620.00;;;20.31;50.06
70248;BME280;57641;51.416;5.506;2022-08-07T02:55:51;102619.13;;;20.31;50.14
70248;BME280;57641;51.416;5.506;2022-08-07T02:58:18;102613.72;;;20.31;50.43
70248;BME280;57641;51.416;5.506;2022-08-07T03:00:48;102624.41;;;20.24;50.15
70248;BME280;57641;51.416;5.506;2022-08-07T03:03:15;102619.53;;;20.19;50.26
70248;BME280;57641;51.416;5.506;2022-08-07T03:05:42;102619.22;;;20.14;50.22
70248;BME280;57641;51.416;5.506;2022-08-07T03:08:09;102624.94;;;20.11;50.78
70248;BME280;57641;51.416;5.506;2022-08-07T03:10:36;102628.00;;;20.08;50.61
70248;BME280;57641;51.416;5.506;2022-08-07T03:13:03;102621.22;;;20.04;50.41
70248;BME280;57641;51.416;5.506;2022-08-07T03:15:30;102612.28;;;20.04;50.38
70248;BME280;57641;51.416;5.506;2022-08-07T03:17:56;102615.00;;;20.04;50.68
70248;BME280;57641;51.416;5.506;2022-08-07T03:20:23;102619.72;;;20.02;50.88
70248;BME280;57641;51.416;5.506;2022-08-07T03:22:49;102619.38;;;20.05;51.04
70248;BME280;57641;51.416;5.506;2022-08-07T03:25:15;102615.31;;;20.01;50.77
70248;BME280;57641;51.416;5.506;2022-08-07T03:27:43;102617.19;;;20.00;50.88
70248;BME280;57641;51.416;5.506;2022-08-07T03:30:11;102615.69;;;19.98;50.82
70248;BME280;57641;51.416;5.506;2022-08-07T03:32:39;102615.50;;;19.99;50.67
70248;BME280;57641;51.416;5.506;2022-08-07T03:35:11;102616.53;;;19.98;50.66
70248;BME280;57641;51.416;5.506;2022-08-07T03:37:38;102608.56;;;19.97;50.44
70248;BME280;57641;51.416;5.506;2022-08-07T03:40:06;102612.44;;;19.94;50.74
70248;BME280;57641;51.416;5.506;2022-08-07T03:42:34;102614.81;;;19.89;51.08
70248;BME280;57641;51.416;5.506;2022-08-07T03:45:02;102612.31;;;19.88;50.97
70248;BME280;57641;51.416;5.506;2022-08-07T03:47:28;102608.91;;;19.86;51.25
70248;BME280;57641;51.416;5.506;2022-08-07T03:49:55;102611.78;;;19.84;51.14
70248;BME280;57641;51.416;5.506;2022-08-07T03:52:24;102605.41;;;19.77;51.22
70248;BME280;57641;51.416;5.506;2022-08-07T03:54:51;102608.41;;;19.74;51.53
70248;BME280;57641;51.416;5.506;2022-08-07T03:57:17;102607.41;;;19.75;51.00
70248;BME280;57641;51.416;5.506;2022-08-07T03:59:44;102615.69;;;19.73;51.02
70248;BME280;57641;51.416;5.506;2022-08-07T04:02:12;102616.38;;;19.75;51.41
70248;BME280;57641;51.416;5.506;2022-08-07T04:04:41;102621.63;;;19.77;51.84
70248;BME280;57641;51.416;5.506;2022-08-07T04:07:07;102614.00;;;19.72;51.45
70248;BME280;57641;51.416;5.506;2022-08-07T04:09:34;102622.47;;;19.69;51.70
70248;BME280;57641;51.416;5.506;2022-08-07T04:12:01;102629.59;;;19.70;51.34
70248;BME280;57641;51.416;5.506;2022-08-07T04:14:27;102618.91;;;19.69;52.13
70248;BME280;57641;51.416;5.506;2022-08-07T04:16:53;102618.59;;;19.72;51.63
70248;BME280;57641;51.416;5.506;2022-08-07T04:19:19;102618.06;;;19.68;51.18
70248;BME280;57641;51.416;5.506;2022-08-07T04:21:44;102624.31;;;19.69;51.41
70248;BME280;57641;51.416;5.506;2022-08-07T04:24:11;102625.19;;;19.69;51.63
70248;BME280;57641;51.416;5.506;2022-08-07T04:26:38;102624.31;;;19.69;51.25
70248;BME280;57641;51.416;5.506;2022-08-07T04:29:05;102625.19;;;19.69;51.19
70248;BME280;57641;51.416;5.506;2022-08-07T04:31:31;102623.16;;;19.63;50.87
70248;BME280;57641;51.416;5.506;2022-08-07T04:33:57;102634.13;;;19.62;51.10
70248;BME280;57641;51.416;5.506;2022-08-07T04:36:23;102632.13;;;19.56;51.05
70248;BME280;57641;51.416;5.506;2022-08-07T04:38:49;102630.06;;;19.58;51.54
70248;BME280;57641;51.416;5.506;2022-08-07T04:41:15;102630.44;;;19.55;51.00
70248;BME280;57641;51.416;5.506;2022-08-07T04:43:41;102632.13;;;19.56;51.21
70248;BME280;57641;51.416;5.506;2022-08-07T04:49:27;102636.34;;;19.58;52.43
70248;BME280;57641;51.416;5.506;2022-08-07T04:52:28;102646.66;;;19.55;52.28
70248;BME280;57641;51.416;5.506;2022-08-07T04:55:05;102641.06;;;19.48;51.38
70248;BME280;57641;51.416;5.506;2022-08-07T04:57:58;102646.31;;;19.50;51.64
70248;BME280;57641;51.416;5.506;2022-08-07T05:00:37;102650.72;;;19.51;51.82
70248;BME280;57641;51.416;5.506;2022-08-07T05:03:31;102645.66;;;19.56;51.87
70248;BME280;57641;51.416;5.506;2022-08-07T05:06:21;102642.25;;;19.54;52.49
70248;BME280;57641;51.416;5.506;2022-08-07T05:09:07;102643.81;;;19.56;52.04
70248;BME280;57641;51.416;5.506;2022-08-07T05:11:42;102649.69;;;19.52;51.61
70248;BME280;57641;51.416;5.506;2022-08-07T05:14:42;102647.16;;;19.58;51.46
70248;BME280;57641;51.416;5.506;2022-08-07T05:17:12;102648.84;;;19.59;50.99
70248;BME280;57641;51.416;5.506;2022-08-07T05:19:46;102649.53;;;19.61;51.17
70248;BME280;57641;51.416;5.506;2022-08-07T05:22:14;102653.59;;;19.65;50.86
70248;BME280;57641;51.416;5.506;2022-08-07T05:24:41;102646.13;;;19.67;50.90
70248;BME280;57641;51.416;5.506;2022-08-07T05:27:09;102656.28;;;19.73;50.70
70248;BME280;57641;51.416;5.506;2022-08-07T05:29:38;102653.06;;;19.78;50.92
70248;BME280;57641;51.416;5.506;2022-08-07T05:32:09;102650.91;;;19.81;50.43
70248;BME280;57641;51.416;5.506;2022-08-07T05:34:35;102661.88;;;19.80;50.57
70248;BME280;57641;51.416;5.506;2022-08-07T05:37:03;102668.47;;;19.77;50.54
70248;BME280;57641;51.416;5.506;2022-08-07T05:39:29;102666.47;;;19.88;50.52
70248;BME280;57641;51.416;5.506;2022-08-07T05:41:55;102666.59;;;19.94;50.70
70248;BME280;57641;51.416;5.506;2022-08-07T05:44:21;102671.69;;;19.97;50.22
70248;BME280;57641;51.416;5.506;2022-08-07T05:46:48;102674.72;;;20.02;50.28
70248;BME280;57641;51.416;5.506;2022-08-07T05:49:14;102680.81;;;20.04;49.94
70248;BME280;57641;51.416;5.506;2022-08-07T05:51:42;102671.00;;;20.03;50.16
70248;BME280;57641;51.416;5.506;2022-08-07T05:54:09;102681.66;;;20.05;50.12
70248;BME280;57641;51.416;5.506;2022-08-07T05:56:35;102681.97;;;20.10;50.46
70248;BME280;57641;51.416;5.506;2022-08-07T05:59:02;102673.19;;;20.16;50.02
70248;BME280;57641;51.416;5.506;2022-08-07T06:01:30;102676.41;;;20.19;49.83
70248;BME280;57641;51.416;5.506;2022-08-07T06:03:56;102676.91;;;20.23;49.64
70248;BME280;57641;51.416;5.506;2022-08-07T06:06:23;102675.69;;;20.25;49.53
70248;BME280;57641;51.416;5.506;2022-08-07T06:08:50;102686.56;;;20.17;49.11
70248;BME280;57641;51.416;5.506;2022-08-07T06:11:16;102683.69;;;20.11;49.05
70248;BME280;57641;51.416;5.506;2022-08-07T06:13:42;102680.97;;;20.19;49.47
70248;BME280;57641;51.416;5.506;2022-08-07T06:16:08;102686.03;;;20.22;49.05
70248;BME280;57641;51.416;5.506;2022-08-07T06:18:35;102679.78;;;20.30;48.98
70248;BME280;57641;51.416;5.506;2022-08-07T06:21:02;102680.78;;;20.37;48.83
70248;BME280;57641;51.416;5.506;2022-08-07T06:23:29;102674.50;;;20.44;49.03
70248;BME280;57641;51.416;5.506;2022-08-07T06:25:56;102677.19;;;20.52;48.83
70248;BME280;57641;51.416;5.506;2022-08-07T06:28:23;102671.75;;;20.60;48.76
70248;BME280;57641;51.416;5.506;2022-08-07T06:30:49;102676.63;;;20.65;48.33
70248;BME280;57641;51.416;5.506;2022-08-07T06:33:15;102679.84;;;20.69;48.55
70248;BME280;57641;51.416;5.506;2022-08-07T06:35:41;102672.38;;;20.71;47.88
70248;BME280;57641;51.416;5.506;2022-08-07T06:38:07;102674.09;;;20.72;48.17
70248;BME280;57641;51.416;5.506;2022-08-07T06:40:48;102676.75;;;20.80;48.13
70248;BME280;57641;51.416;5.506;2022-08-07T06:43:15;102677.91;;;20.85;47.51
70248;BME280;57641;51.416;5.506;2022-08-07T06:45:45;102672.16;;;20.80;47.28
70248;BME280;57641;51.416;5.506;2022-08-07T06:48:12;102671.47;;;20.86;47.37
70248;BME280;57641;51.416;5.506;2022-08-07T06:50:38;102669.91;;;20.92;47.39
70248;BME280;57641;51.416;5.506;2022-08-07T06:53:07;102665.66;;;20.97;46.75
70248;BME280;57641;51.416;5.506;2022-08-07T06:55:33;102660.88;;;20.99;46.45
70248;BME280;57641;51.416;5.506;2022-08-07T06:58:02;102666.75;;;21.11;47.19
70248;BME280;57641;51.416;5.506;2022-08-07T07:00:34;102666.06;;;21.17;47.39
70248;BME280;57641;51.416;5.506;2022-08-07T07:03:01;102670.00;;;21.15;46.08
70248;BME280;57641;51.416;5.506;2022-08-07T07:05:28;102662.47;;;21.25;46.03
70248;BME280;57641;51.416;5.506;2022-08-07T07:07:53;102661.03;;;21.37;46.62
70248;BME280;57641;51.416;5.506;2022-08-07T07:10:37;102663.69;;;21.45;46.07
70248;BME280;57641;51.416;5.506;2022-08-07T07:13:19;102663.16;;;21.49;45.46
70248;BME280;57641;51.416;5.506;2022-08-07T07:15:58;102669.28;;;21.43;46.07
70248;BME280;57641;51.416;5.506;2022-08-07T07:18:30;102668.69;;;21.56;46.09
70248;BME280;57641;51.416;5.506;2022-08-07T07:21:00;102659.28;;;21.67;46.04
70248;BME280;57641;51.416;5.506;2022-08-07T07:23:28;102668.50;;;21.80;45.68
70248;BME280;57641;51.416;5.506;2022-08-07T07:26:00;102669.81;;;21.84;45.68
70248;BME280;57641;51.416;5.506;2022-08-07T07:28:33;102666.00;;;21.94;45.66
70248;BME280;57641;51.416;5.506;2022-08-07T07:31:14;102674.94;;;22.02;44.19
70248;BME280;57641;51.416;5.506;2022-08-07T07:33:43;102670.38;;;22.03;44.64
70248;BME280;57641;51.416;5.506;2022-08-07T07:36:11;102671.13;;;22.11;44.46
70248;BME280;57641;51.416;5.506;2022-08-07T07:38:40;102681.91;;;22.19;44.15
70248;BME280;57641;51.416;5.506;2022-08-07T07:41:08;102669.34;;;22.18;44.03
70248;BME280;57641;51.416;5.506;2022-08-07T07:43:38;102661.22;;;22.33;44.34
70248;BME280;57641;51.416;5.506;2022-08-07T07:46:05;102661.41;;;22.46;44.23
70248;BME280;57641;51.416;5.506;2022-08-07T07:48:32;102655.03;;;22.54;43.38
70248;BME280;57641;51.416;5.506;2022-08-07T07:50:59;102657.00;;;22.60;43.41
70248;BME280;57641;51.416;5.506;2022-08-07T07:53:26;102650.22;;;22.70;43.60
70248;BME280;57641;51.416;5.506;2022-08-07T07:55:56;102650.94;;;22.72;43.66
70248;BME280;57641;51.416;5.506;2022-08-07T07:58:28;102647.81;;;22.76;42.67
70248;BME280;57641;51.416;5.506;2022-08-07T08:00:54;102650.63;;;22.82;43.34
70248;BME280;57641;51.416;5.506;2022-08-07T08:03:22;102637.97;;;22.89;43.27
70248;BME280;57641;51.416;5.506;2022-08-07T08:05:49;102633.50;;;23.03;42.85
70248;BME280;57641;51.416;5.506;2022-08-07T08:08:16;102639.03;;;23.09;42.10
70248;BME280;57641;51.416;5.506;2022-08-07T08:10:43;102636.94;;;23.11;41.33
70248;BME280;57641;51.416;5.506;2022-08-07T08:13:10;102645.75;;;23.13;40.38
70248;BME280;57641;51.416;5.506;2022-08-07T08:15:38;102643.38;;;23.25;40.68
70248;BME280;57641;51.416;5.506;2022-08-07T08:18:08;102635.28;;;23.32;41.39
70248;BME280;57641;51.416;5.506;2022-08-07T08:20:36;102640.84;;;23.45;41.25
70248;BME280;57641;51.416;5.506;2022-08-07T08:23:03;102639.72;;;23.54;40.71
70248;BME280;57641;51.416;5.506;2022-08-07T08:25:50;102646.00;;;23.54;40.67
70248;BME280;57641;51.416;5.506;2022-08-07T08:28:38;102639.94;;;23.52;40.72
70248;BME280;57641;51.416;5.506;2022-08-07T08:31:19;102639.38;;;23.64;41.01
70248;BME280;57641;51.416;5.506;2022-08-07T08:33:46;102642.22;;;23.77;40.09
70248;BME280;57641;51.416;5.506;2022-08-07T08:36:14;102638.53;;;23.84;40.52
70248;BME280;57641;51.416;5.506;2022-08-07T08:38:42;102640.84;;;23.87;39.29
70248;BME280;57641;51.416;5.506;2022-08-07T08:41:15;102645.03;;;23.90;39.57
70248;BME280;57641;51.416;5.506;2022-08-07T08:44:01;102639.41;;;23.91;39.19
70248;BME280;57641;51.416;5.506;2022-08-07T08:46:37;102637.34;;;23.93;38.84
70248;BME280;57641;51.416;5.506;2022-08-07T08:51:56;102635.59;;;24.14;38.45
70248;BME280;57641;51.416;5.506;2022-08-07T08:54:46;102636.28;;;24.22;38.61
70248;BME280;57641;51.416;5.506;2022-08-07T08:57:24;102635.53;;;24.35;37.46
70248;BME280;57641;51.416;5.506;2022-08-07T09:00:06;102629.91;;;24.36;38.20
70248;BME280;57641;51.416;5.506;2022-08-07T09:17:05;102641.09;;;24.55;35.05
70248;BME280;57641;51.416;5.506;2022-08-07T09:19:44;102636.94;;;24.65;36.39
70248;BME280;57641;51.416;5.506;2022-08-07T09:24:58;102638.78;;;24.93;36.24
70248;BME280;57641;51.416;5.506;2022-08-07T09:30:31;102626.81;;;24.94;35.67
70248;BME280;57641;51.416;5.506;2022-08-07T09:33:11;102620.72;;;24.92;34.28
70248;BME280;57641;51.416;5.506;2022-08-07T09:36:00;102621.16;;;25.02;33.67
70248;BME280;57641;51.416;5.506;2022-08-07T09:38:45;102628.50;;;25.01;34.25
70248;BME280;57641;51.416;5.506;2022-08-07T09:44:48;102615.72;;;25.08;35.25
70248;BME280;57641;51.416;5.506;2022-08-07T09:50:24;102613.44;;;25.18;34.66
70248;BME280;57641;51.416;5.506;2022-08-07T09:53:06;102608.22;;;25.30;33.65
70248;BME280;57641;51.416;5.506;2022-08-07T10:04:09;102604.22;;;25.33;33.74
70248;BME280;57641;51.416;5.506;2022-08-07T10:06:58;102600.03;;;25.30;35.59
70248;BME280;57641;51.416;5.506;2022-08-07T10:20:10;102595.66;;;25.55;34.41
70248;BME280;57641;51.416;5.506;2022-08-07T10:31:26;102577.16;;;25.77;33.75
70248;BME280;57641;51.416;5.506;2022-08-07T10:42:41;102570.78;;;25.96;31.58
70248;BME280;57641;51.416;5.506;2022-08-07T10:45:18;102564.09;;;25.92;32.02
70248;BME280;57641;51.416;5.506;2022-08-07T10:47:55;102558.38;;;26.07;32.91
70248;BME280;57641;51.416;5.506;2022-08-07T10:50:45;102567.59;;;26.26;30.76
70248;BME280;57641;51.416;5.506;2022-08-07T10:56:03;102556.44;;;26.21;31.15
70248;BME280;57641;51.416;5.506;2022-08-07T11:06:31;102549.16;;;26.59;31.21
70248;BME280;57641;51.416;5.506;2022-08-07T11:09:08;102546.84;;;26.56;30.42
70248;BME280;57641;51.416;5.506;2022-08-07T11:11:52;102538.91;;;26.48;30.59
70248;BME280;57641;51.416;5.506;2022-08-07T11:14:25;102537.38;;;26.59;30.18
70248;BME280;57641;51.416;5.506;2022-08-07T11:17:03;102527.47;;;26.64;30.57
70248;BME280;57641;51.416;5.506;2022-08-07T11:20:36;102527.84;;;26.68;29.89
70248;BME280;57641;51.416;5.506;2022-08-07T11:25:32;102514.50;;;26.91;31.70
70248;BME280;57641;51.416;5.506;2022-08-07T11:28:25;102514.84;;;27.01;30.49
70248;BME280;57641;51.416;5.506;2022-08-07T11:31:06;102516.72;;;27.01;30.38
70248;BME280;57641;51.416;5.506;2022-08-07T11:33:48;102507.22;;;27.03;29.27
70248;BME280;57641;51.416;5.506;2022-08-07T11:36:50;102502.50;;;27.17;30.10
70248;BME280;57641;51.416;5.506;2022-08-07T11:39:43;102503.25;;;27.24;30.83
70248;BME280;57641;51.416;5.506;2022-08-07T11:42:25;102506.56;;;27.33;29.98
70248;BME280;57641;51.416;5.506;2022-08-07T11:44:57;102503.00;;;27.32;28.75
70248;BME280;57641;51.416;5.506;2022-08-07T11:47:35;102506.69;;;27.44;29.75
70248;BME280;57641;51.416;5.506;2022-08-07T11:50:24;102497.13;;;27.53;29.89
70248;BME280;57641;51.416;5.506;2022-08-07T11:55:40;102502.38;;;27.30;30.11
70248;BME280;57641;51.416;5.506;2022-08-07T12:01:30;102500.44;;;27.12;29.82
70248;BME280;57641;51.416;5.506;2022-08-07T12:06:44;102495.72;;;26.95;29.49
70248;BME280;57641;51.416;5.506;2022-08-07T12:11:45;102497.03;;;27.17;28.60
70248;BME280;57641;51.416;5.506;2022-08-07T12:14:18;102487.22;;;27.27;29.10
70248;BME280;57641;51.416;5.506;2022-08-07T12:16:59;102481.47;;;27.36;28.81
70248;BME280;57641;51.416;5.506;2022-08-07T12:22:09;102480.69;;;27.53;28.42
70248;BME280;57641;51.416;5.506;2022-08-07T12:27:43;102481.78;;;27.46;29.95
70248;BME280;57641;51.416;5.506;2022-08-07T12:30:11;102471.56;;;27.59;29.25
70248;BME280;57641;51.416;5.506;2022-08-07T12:32:47;102475.38;;;27.77;29.65
70248;BME280;57641;51.416;5.506;2022-08-07T12:35:14;102478.19;;;27.88;28.83
70248;BME280;57641;51.416;5.506;2022-08-07T12:37:42;102465.16;;;27.84;27.75
70248;BME280;57641;51.416;5.506;2022-08-07T12:40:12;102465.53;;;27.87;27.31
70248;BME280;57641;51.416;5.506;2022-08-07T12:42:41;102474.16;;;27.91;27.81
70248;BME280;57641;51.416;5.506;2022-08-07T12:45:20;102472.25;;;27.91;27.08
70248;BME280;57641;51.416;5.506;2022-08-07T12:48:17;102462.34;;;27.90;27.44
70248;BME280;57641;51.416;5.506;2022-08-07T12:58:27;102465.63;;;27.99;28.49
70248;BME280;57641;51.416;5.506;2022-08-07T13:12:30;102454.16;;;28.38;27.47
70248;BME280;57641;51.416;5.506;2022-08-07T13:17:50;102440.94;;;28.47;28.04
70248;BME280;57641;51.416;5.506;2022-08-07T13:20:45;102447.44;;;28.64;28.81
70248;BME280;57641;51.416;5.506;2022-08-07T13:25:49;102449.66;;;28.74;27.72
70248;BME280;57641;51.416;5.506;2022-08-07T13:28:32;102436.66;;;28.81;27.33
70248;BME280;57641;51.416;5.506;2022-08-07T13:31:34;102445.03;;;28.98;26.92
70248;BME280;57641;51.416;5.506;2022-08-07T13:36:45;102438.31;;;28.82;25.46
70248;BME280;57641;51.416;5.506;2022-08-07T13:39:31;102431.16;;;28.92;25.95
70248;BME280;57641;51.416;5.506;2022-08-07T13:42:00;102424.84;;;29.15;26.34
70248;BME280;57641;51.416;5.506;2022-08-07T13:44:31;102416.03;;;29.36;26.75
70248;BME280;57641;51.416;5.506;2022-08-07T13:46:59;102420.44;;;29.61;27.42
70248;BME280;57641;51.416;5.506;2022-08-07T13:49:31;102411.25;;;29.55;25.12
70248;BME280;57641;51.416;5.506;2022-08-07T13:52:02;102410.38;;;29.66;25.28
70248;BME280;57641;51.416;5.506;2022-08-07T13:54:30;102417.41;;;29.74;25.65
70248;BME280;57641;51.416;5.506;2022-08-07T13:57:03;102409.41;;;29.72;24.28
70248;BME280;57641;51.416;5.506;2022-08-07T13:59:40;102412.34;;;29.83;25.54
70248;BME280;57641;51.416;5.506;2022-08-07T14:02:16;102411.66;;;29.87;25.30
70248;BME280;57641;51.416;5.506;2022-08-07T14:04:48;102411.63;;;29.99;25.47
70248;BME280;57641;51.416;5.506;2022-08-07T14:07:17;102405.41;;;30.03;25.22
70248;BME280;57641;51.416;5.506;2022-08-07T14:09:45;102410.22;;;29.96;24.48
70248;BME280;57641;51.416;5.506;2022-08-07T14:12:54;102398.47;;;29.89;25.19
70248;BME280;57641;51.416;5.506;2022-08-07T14:17:49;102400.28;;;29.84;23.82
70248;BME280;57641;51.416;5.506;2022-08-07T14:20:19;102397.53;;;29.84;24.92
70248;BME280;57641;51.416;5.506;2022-08-07T14:22:51;102397.91;;;29.87;24.49
70248;BME280;57641;51.416;5.506;2022-08-07T14:25:23;102392.38;;;29.99;25.30
70248;BME280;57641;51.416;5.506;2022-08-07T14:27:51;102397.78;;;30.22;25.12
70248;BME280;57641;51.416;5.506;2022-08-07T14:30:18;102391.84;;;30.30;24.75
70248;BME280;57641;51.416;5.506;2022-08-07T14:32:47;102391.44;;;30.50;25.31
70248;BME280;57641;51.416;5.506;2022-08-07T14:35:24;102387.69;;;30.56;24.38
70248;BME280;57641;51.416;5.506;2022-08-07T14:37:52;102392.53;;;30.66;24.24
70248;BME280;57641;51.416;5.506;2022-08-07T14:40:21;102387.88;;;30.66;24.01
70248;BME280;57641;51.416;5.506;2022-08-07T14:43:05;102378.41;;;30.45;23.18
70248;BME280;57641;51.416;5.506;2022-08-07T14:45:41;102385.13;;;30.38;23.99
70248;BME280;57641;51.416;5.506;2022-08-07T14:48:07;102378.59;;;30.27;24.63
70248;BME280;57641;51.416;5.506;2022-08-07T14:50:41;102378.75;;;30.66;25.10
70248;BME280;57641;51.416;5.506;2022-08-07T14:53:08;102372.81;;;30.90;25.50
70248;BME280;57641;51.416;5.506;2022-08-07T14:55:35;102371.22;;;30.94;23.88
70248;BME280;57641;51.416;5.506;2022-08-07T14:58:02;102370.22;;;31.00;23.82
70248;BME280;57641;51.416;5.506;2022-08-07T15:00:30;102372.59;;;31.09;23.58
70248;BME280;57641;51.416;5.506;2022-08-07T15:03:01;102371.56;;;31.15;24.01
70248;BME280;57641;51.416;5.506;2022-08-07T15:05:29;102372.53;;;31.03;22.41
70248;BME280;57641;51.416;5.506;2022-08-07T15:07:56;102370.69;;;31.09;23.15
70248;BME280;57641;51.416;5.506;2022-08-07T15:10:24;102369.38;;;31.17;23.50
70248;BME280;57641;51.416;5.506;2022-08-07T15:12:52;102362.63;;;31.24;22.79
70248;BME280;57641;51.416;5.506;2022-08-07T15:15:32;102367.38;;;31.29;23.43
70248;BME280;57641;51.416;5.506;2022-08-07T15:18:03;102363.66;;;31.40;24.31
70248;BME280;57641;51.416;5.506;2022-08-07T15:20:34;102359.72;;;31.36;23.28
70248;BME280;57641;51.416;5.506;2022-08-07T15:23:08;102362.16;;;31.32;23.09